< < Back
Terminal Aerodrome Forecast


Current Version              Previous Versions:   1  2  3  4  5  6  7  8  9  

Terminal Aerodrome Forecast

460
FTUS42 KTAE 260535
TAFVLD
TAF
KVLD 260535Z 2606/2706 17003KT P6SM FEW250
     FM261800 09005KT P6SM SCT070 SCT250
     FM270100 15004KT P6SM SCT250=



Latest METAR

240
SAUS70 KWBC 270000 RRA
MTRVLD
METAR KVLD 262353Z 10003KT 10SM CLR 28/16 A3006 RMK AO2 SLP186 T02830161
10311 20283 55010


USA.gov is the U.S. government's official web portal to all federal, state and local government web resources and services.